Time;durP1;ratioP1;P1;durP2;ratioP2;P2;SDS_P1;SDS_P2;PMS_P1;PMS_P2;Temp;Humidity;BMP_temperature;BMP_pressure;BME280_temperature;BME280_humidity;BME280_pressure;Samples;Min_cycle;Max_cycle;Signal;HPM_P1;HPM_P2
2023/06/12 00:00:46;;;;;;;4.15;2.45;;;19.80;93.30;;;;;;5103021;27;20046;-80
2023/06/12 00:03:13;;;;;;;6.47;3.03;;;19.80;93.30;;;;;;5118691;27;20043;-80
2023/06/12 00:05:43;;;;;;;4.15;2.70;;;19.70;93.40;;;;;;5125931;27;20102;-80
2023/06/12 00:08:11;;;;;;;3.30;2.63;;;19.70;93.50;;;;;;5142223;27;20419;-79
2023/06/12 00:10:38;;;;;;;5.90;2.63;;;19.60;93.60;;;;;;5117394;27;20039;-79
2023/06/12 00:13:03;;;;;;;3.70;2.30;;;19.60;93.60;;;;;;5099982;27;20031;-79
2023/06/12 00:15:29;;;;;;;3.15;2.40;;;19.60;93.70;;;;;;5099922;27;20039;-80
2023/06/12 00:17:54;;;;;;;3.60;2.30;;;19.60;93.70;;;;;;5117030;27;20047;-79
2023/06/12 00:20:20;;;;;;;4.82;2.47;;;19.60;93.80;;;;;;5100074;27;20503;-79
2023/06/12 00:22:46;;;;;;;4.80;2.25;;;19.50;93.80;;;;;;5120395;27;20391;-79
2023/06/12 00:25:11;;;;;;;4.25;2.30;;;19.50;93.90;;;;;;5127971;27;20502;-78
2023/06/12 00:27:37;;;;;;;4.68;2.50;;;19.50;94.10;;;;;;5127082;27;20112;-79
2023/06/12 00:30:04;;;;;;;4.22;2.20;;;19.40;94.20;;;;;;5107355;27;20371;-79
2023/06/12 00:32:29;;;;;;;3.67;2.30;;;19.40;94.40;;;;;;5130248;27;20043;-80
2023/06/12 00:34:56;;;;;;;3.72;2.10;;;19.30;94.50;;;;;;5117369;27;20438;-79
2023/06/12 00:37:24;;;;;;;4.35;2.35;;;19.30;94.60;;;;;;5098985;27;20178;-78
2023/06/12 00:39:51;;;;;;;3.38;2.30;;;19.20;94.70;;;;;;5120689;27;20043;-80
2023/06/12 00:42:17;;;;;;;3.92;2.13;;;19.20;94.90;;;;;;5150436;27;20114;-79
2023/06/12 00:44:43;;;;;;;5.60;2.28;;;19.10;95.00;;;;;;5132703;27;20195;-79
2023/06/12 00:47:10;;;;;;;4.00;2.05;;;19.10;95.20;;;;;;5098978;27;20043;-76
2023/06/12 00:49:37;;;;;;;3.63;2.10;;;19.00;95.40;;;;;;5099897;27;20043;-80
2023/06/12 00:52:03;;;;;;;3.55;2.50;;;19.00;95.50;;;;;;5116977;27;20046;-79
2023/06/12 00:54:29;;;;;;;5.43;2.28;;;18.90;95.60;;;;;;5116414;27;20126;-79
2023/06/12 00:56:56;;;;;;;3.35;2.30;;;18.90;95.80;;;;;;5130664;27;20050;-79
2023/06/12 00:59:23;;;;;;;3.50;2.30;;;18.80;95.90;;;;;;5134639;27;20091;-79
2023/06/12 01:01:49;;;;;;;4.78;2.53;;;18.80;96.10;;;;;;5130488;27;20424;-79
2023/06/12 01:04:16;;;;;;;4.05;2.38;;;18.70;96.20;;;;;;5116717;27;20176;-79
2023/06/12 01:06:55;;;;;;;3.80;2.53;;;18.60;96.40;;;;;;5134846;27;20050;-79
2023/06/12 01:09:23;;;;;;;3.80;2.38;;;18.60;96.60;;;;;;5122675;27;20042;-79
2023/06/12 01:11:52;;;;;;;3.67;2.10;;;18.60;96.60;;;;;;5133911;27;20045;-79
2023/06/12 01:14:18;;;;;;;6.20;2.20;;;18.50;96.80;;;;;;5131041;27;20058;-79
2023/06/12 01:16:45;;;;;;;4.60;2.40;;;18.50;96.90;;;;;;5115799;27;20053;-79
2023/06/12 01:19:13;;;;;;;3.60;2.20;;;18.50;97.10;;;;;;5115912;27;20043;-79
2023/06/12 01:21:41;;;;;;;3.53;2.20;;;18.40;97.30;;;;;;5129686;27;20119;-79
2023/06/12 01:24:34;;;;;;;5.75;2.75;;;18.40;97.60;;;;;;5128235;27;20114;-80
2023/06/12 01:27:07;;;;;;;5.75;2.80;;;18.30;98.00;;;;;;5129024;27;20386;-79
2023/06/12 01:29:54;;;;;;;3.10;2.35;;;18.30;98.10;;;;;;5122182;27;20069;-79
2023/06/12 01:32:20;;;;;;;5.07;2.63;;;18.20;98.20;;;;;;5132377;27;20038;-79
2023/06/12 01:34:51;;;;;;;5.22;2.40;;;18.20;98.50;;;;;;5127885;27;20139;-79
2023/06/12 01:37:31;;;;;;;4.43;2.20;;;18.10;98.70;;;;;;5099072;27;20055;-79
2023/06/12 01:40:05;;;;;;;6.07;2.72;;;18.10;99.10;;;;;;5128194;27;20087;-80
2023/06/12 01:42:31;;;;;;;3.38;2.53;;;18.00;99.20;;;;;;5136148;27;20042;-79
2023/06/12 01:44:57;;;;;;;3.88;2.30;;;18.00;99.40;;;;;;5126960;27;20043;-80
2023/06/12 01:47:22;;;;;;;5.47;2.45;;;17.90;99.70;;;;;;5115149;27;20047;-79
2023/06/12 01:49:48;;;;;;;3.47;2.20;;;17.90;99.90;;;;;;5118770;27;20038;-79
2023/06/12 01:52:14;;;;;;;4.55;2.20;;;17.90;99.90;;;;;;5116134;27;20039;-79
2023/06/12 01:54:40;;;;;;;3.53;2.30;;;17.80;99.90;;;;;;5114754;27;20039;-79
2023/06/12 01:57:06;;;;;;;4.50;2.30;;;17.80;99.90;;;;;;5115411;28;20043;-79
2023/06/12 01:59:34;;;;;;;3.70;2.17;;;17.80;99.90;;;;;;5115399;27;20130;-80
2023/06/12 02:02:01;;;;;;;4.20;2.35;;;17.80;99.90;;;;;;5129993;27;20043;-79
2023/06/12 02:04:28;;;;;;;2.88;2.20;;;17.70;99.90;;;;;;5115815;27;20051;-79
2023/06/12 02:06:54;;;;;;;3.80;2.42;;;17.60;99.90;;;;;;5115732;28;20046;-79
2023/06/12 02:09:20;;;;;;;3.90;2.25;;;17.60;99.90;;;;;;5115579;28;20387;-78
2023/06/12 02:11:45;;;;;;;3.72;2.20;;;17.50;99.90;;;;;;5098442;28;20035;-80
2023/06/12 02:14:11;;;;;;;4.45;2.78;;;17.60;99.90;;;;;;5115010;27;20051;-79
2023/06/12 02:16:37;;;;;;;5.22;2.42;;;17.60;99.90;;;;;;5098508;28;20043;-79
2023/06/12 02:19:02;;;;;;;4.13;2.30;;;17.50;99.90;;;;;;5097782;28;20053;-79
2023/06/12 02:21:28;;;;;;;5.18;2.50;;;17.50;99.90;;;;;;5115671;28;20392;-79
2023/06/12 02:23:54;;;;;;;4.47;2.20;;;17.50;99.90;;;;;;5115268;28;20118;-79
2023/06/12 02:26:20;;;;;;;3.88;2.10;;;17.40;99.90;;;;;;5123207;27;20047;-79
2023/06/12 02:29:04;;;;;;;5.45;2.50;;;17.40;99.90;;;;;;5129396;28;20434;-79
2023/06/12 02:31:30;;;;;;;3.00;2.00;;;17.30;99.90;;;;;;5132916;27;20042;-79
2023/06/12 02:33:56;;;;;;;3.45;2.20;;;17.30;99.90;;;;;;5098432;28;20043;-80
2023/06/12 02:36:21;;;;;;;3.40;2.05;;;17.20;99.90;;;;;;5117240;27;20043;-79
2023/06/12 02:38:48;;;;;;;4.53;2.20;;;17.20;99.90;;;;;;5122978;28;20043;-79
2023/06/12 02:41:13;;;;;;;4.75;2.60;;;17.10;99.90;;;;;;5134240;27;20054;-78
2023/06/12 02:43:40;;;;;;;5.00;2.30;;;17.10;99.90;;;;;;5115487;28;20391;-79
2023/06/12 02:46:05;;;;;;;5.57;2.55;;;17.00;99.90;;;;;;5098057;28;20078;-79
2023/06/12 02:48:31;;;;;;;4.18;2.28;;;17.00;99.90;;;;;;5114889;28;20078;-79
2023/06/12 02:50:57;;;;;;;4.35;2.60;;;16.90;99.90;;;;;;5098283;28;20047;-78
2023/06/12 02:53:22;;;;;;;3.85;2.45;;;16.90;99.90;;;;;;5115032;28;20047;-79
2023/06/12 02:55:51;;;;;;;3.80;2.42;;;16.90;99.90;;;;;;5115170;28;20039;-79
2023/06/12 02:58:17;;;;;;;4.45;2.80;;;16.90;99.90;;;;;;5085064;27;20050;-79
2023/06/12 03:00:44;;;;;;;6.05;2.60;;;16.90;99.90;;;;;;5135433;27;20117;-79
2023/06/12 03:03:12;;;;;;;4.93;2.50;;;16.80;99.90;;;;;;5115927;27;20051;-79
2023/06/12 03:05:38;;;;;;;4.10;2.30;;;16.80;99.90;;;;;;5109700;27;20039;-79
2023/06/12 03:08:04;;;;;;;4.93;2.50;;;16.70;99.90;;;;;;5118102;27;20035;-79
2023/06/12 03:10:31;;;;;;;4.70;2.58;;;16.60;99.90;;;;;;5131930;27;20171;-79
2023/06/12 03:12:56;;;;;;;5.88;2.50;;;16.60;99.90;;;;;;5154138;27;20040;-79
2023/06/12 03:15:22;;;;;;;3.50;2.60;;;16.50;99.90;;;;;;5136652;27;20043;-79
2023/06/12 03:17:48;;;;;;;4.57;2.55;;;16.50;99.90;;;;;;5144706;27;20399;-80
2023/06/12 03:20:15;;;;;;;4.60;2.58;;;16.50;99.90;;;;;;5118316;27;20188;-81
2023/06/12 03:22:41;;;;;;;4.43;2.90;;;16.50;99.90;;;;;;5101600;27;20050;-80
2023/06/12 03:25:09;;;;;;;4.88;2.97;;;16.40;99.90;;;;;;5118497;27;20043;-79
2023/06/12 03:27:35;;;;;;;6.13;2.78;;;16.40;99.90;;;;;;5100800;27;20054;-80
2023/06/12 03:30:00;;;;;;;5.18;2.80;;;16.40;99.90;;;;;;5136432;27;20044;-80
2023/06/12 03:32:26;;;;;;;4.63;2.78;;;16.30;99.90;;;;;;5100990;27;20396;-79
2023/06/12 03:34:52;;;;;;;4.45;2.70;;;16.30;99.90;;;;;;5117882;27;20086;-80
2023/06/12 03:37:18;;;;;;;4.55;2.40;;;16.20;99.90;;;;;;5135531;27;20130;-79
2023/06/12 03:39:44;;;;;;;4.65;2.30;;;16.20;99.90;;;;;;5101358;27;20122;-81
2023/06/12 03:42:10;;;;;;;5.47;2.63;;;16.20;99.90;;;;;;5136425;27;20078;-79
2023/06/12 03:44:36;;;;;;;5.15;2.72;;;16.20;99.90;;;;;;5118016;27;20039;-80
2023/06/12 03:47:02;;;;;;;6.25;2.90;;;16.10;99.90;;;;;;5135890;27;20122;-79
2023/06/12 03:49:28;;;;;;;6.53;2.83;;;16.20;99.90;;;;;;5126972;27;20047;-80
2023/06/12 03:51:54;;;;;;;5.13;2.55;;;16.10;99.90;;;;;;5104510;27;20030;-81
2023/06/12 03:54:21;;;;;;;4.95;2.80;;;16.10;99.90;;;;;;5138293;27;20046;-80
2023/06/12 03:56:48;;;;;;;4.55;2.75;;;16.00;99.90;;;;;;5107475;27;20038;-80
2023/06/12 03:59:13;;;;;;;6.15;2.80;;;15.90;99.90;;;;;;5105267;27;20103;-79
2023/06/12 04:01:42;;;;;;;5.78;2.95;;;15.90;99.90;;;;;;5113201;27;20051;-79
2023/06/12 04:04:09;;;;;;;5.28;2.60;;;15.90;99.90;;;;;;5113915;27;20391;-79
2023/06/12 04:06:40;;;;;;;3.53;2.53;;;15.90;99.90;;;;;;5129492;27;20070;-79
2023/06/12 04:09:09;;;;;;;5.47;2.80;;;16.00;99.90;;;;;;5113970;27;20057;-79
2023/06/12 04:11:38;;;;;;;4.05;2.72;;;15.90;99.90;;;;;;5147200;27;20058;-80
2023/06/12 04:14:05;;;;;;;5.75;2.88;;;15.90;99.90;;;;;;5109971;27;20039;-80
2023/06/12 04:16:32;;;;;;;3.75;2.70;;;15.90;99.90;;;;;;5100471;27;20047;-80
2023/06/12 04:19:02;;;;;;;4.22;2.40;;;15.90;99.90;;;;;;5116008;27;20043;-80
2023/06/12 04:21:27;;;;;;;3.35;2.60;;;15.80;99.90;;;;;;5114966;27;20050;-80
2023/06/12 04:23:53;;;;;;;6.20;2.97;;;15.70;99.90;;;;;;5108845;27;20096;-80
2023/06/12 04:26:20;;;;;;;6.13;2.97;;;15.70;99.90;;;;;;5117143;27;20047;-79
2023/06/12 04:28:46;;;;;;;4.82;2.90;;;15.60;99.90;;;;;;5117044;27;20055;-79
2023/06/12 04:31:15;;;;;;;5.43;2.72;;;15.60;99.90;;;;;;5117272;27;20050;-79
2023/06/12 04:33:41;;;;;;;5.20;2.67;;;15.70;99.90;;;;;;5135330;27;20039;-80
2023/06/12 04:36:13;;;;;;;5.07;2.70;;;15.70;99.90;;;;;;5116796;27;20118;-81
2023/06/12 04:38:39;;;;;;;6.65;3.00;;;15.80;99.90;;;;;;5105574;27;20043;-81
2023/06/12 04:41:09;;;;;;;4.80;2.80;;;15.80;99.90;;;;;;5100189;27;20127;-81
2023/06/12 04:43:36;;;;;;;5.55;2.90;;;15.80;99.90;;;;;;5125894;27;20081;-79
2023/06/12 04:46:03;;;;;;;5.60;3.20;;;15.80;99.90;;;;;;5122750;27;20449;-78
2023/06/12 04:48:28;;;;;;;4.95;3.15;;;15.80;99.90;;;;;;5134654;27;20122;-79
2023/06/12 04:50:58;;;;;;;5.18;2.80;;;15.90;99.90;;;;;;5104869;27;20117;-80
2023/06/12 04:53:30;;;;;;;7.07;3.20;;;16.00;99.90;;;;;;5142380;27;20127;-80
2023/06/12 04:56:00;;;;;;;5.85;3.30;;;16.10;99.90;;;;;;5100010;27;20403;-80
2023/06/12 04:58:26;;;;;;;4.68;2.85;;;16.30;99.90;;;;;;5099823;27;20081;-80
2023/06/12 05:00:55;;;;;;;7.97;3.40;;;16.40;99.90;;;;;;5116421;27;20043;-81
2023/06/12 05:03:21;;;;;;;5.47;3.47;;;16.50;99.90;;;;;;5099497;27;20039;-80
2023/06/12 05:05:48;;;;;;;5.20;3.03;;;16.60;99.90;;;;;;5099740;27;20133;-80
2023/06/12 05:08:14;;;;;;;6.75;3.33;;;16.70;99.90;;;;;;5099219;27;20047;-81
2023/06/12 05:10:40;;;;;;;6.63;3.60;;;16.80;99.90;;;;;;5115891;27;20054;-80
2023/06/12 05:13:06;;;;;;;5.55;3.20;;;16.80;99.90;;;;;;5099004;27;20075;-79
2023/06/12 05:15:32;;;;;;;7.18;3.30;;;16.90;99.90;;;;;;5134720;27;20062;-79
2023/06/12 05:17:58;;;;;;;5.43;3.65;;;17.00;99.90;;;;;;5115862;27;20073;-82
2023/06/12 05:20:24;;;;;;;4.75;3.20;;;17.10;99.90;;;;;;5133849;27;20046;-81
2023/06/12 05:22:50;;;;;;;4.55;3.10;;;17.10;99.90;;;;;;5118804;27;20039;-83
2023/06/12 05:25:16;;;;;;;4.45;3.40;;;17.30;99.90;;;;;;5128990;27;20050;-78
2023/06/12 05:27:42;;;;;;;5.82;3.30;;;17.30;99.90;;;;;;5100170;27;20039;-80
2023/06/12 05:30:08;;;;;;;4.95;3.38;;;17.50;99.90;;;;;;5154830;27;20091;-81
2023/06/12 05:32:34;;;;;;;4.70;3.33;;;17.60;99.90;;;;;;5154844;27;20043;-81
2023/06/12 05:35:00;;;;;;;5.90;3.47;;;17.70;99.90;;;;;;5154767;27;20039;-82
2023/06/12 05:37:26;;;;;;;5.53;3.45;;;17.80;99.90;;;;;;5116652;27;20065;-81
2023/06/12 05:39:53;;;;;;;6.10;3.47;;;17.90;99.90;;;;;;5134021;27;20403;-80
2023/06/12 05:42:19;;;;;;;6.10;3.60;;;18.10;99.90;;;;;;5098988;27;20043;-81
2023/06/12 05:44:47;;;;;;;4.72;3.78;;;18.10;99.90;;;;;;5099165;27;20399;-81
2023/06/12 05:47:14;;;;;;;6.28;3.70;;;18.20;99.90;;;;;;5098986;27;20380;-81
2023/06/12 05:49:40;;;;;;;4.90;3.47;;;18.30;99.90;;;;;;5115502;27;20103;-79
2023/06/12 05:52:07;;;;;;;6.88;3.78;;;18.40;99.90;;;;;;5115967;27;20055;-81
2023/06/12 05:54:35;;;;;;;7.15;3.70;;;18.50;99.90;;;;;;5119159;27;20118;-80
2023/06/12 05:57:02;;;;;;;6.15;3.95;;;18.50;99.90;;;;;;5117418;27;20384;-83
2023/06/12 05:59:28;;;;;;;6.50;3.78;;;18.60;99.90;;;;;;5115475;27;20051;-80
2023/06/12 06:01:55;;;;;;;6.10;3.85;;;18.70;99.90;;;;;;5098201;27;20419;-79
2023/06/12 06:04:21;;;;;;;5.47;4.20;;;18.80;99.90;;;;;;5115540;27;20416;-81
2023/06/12 06:06:48;;;;;;;6.00;3.33;;;19.00;99.90;;;;;;5114999;27;20181;-81
2023/06/12 06:09:17;;;;;;;7.13;3.63;;;19.10;99.90;;;;;;5098710;28;20051;-81
2023/06/12 06:11:43;;;;;;;5.57;3.88;;;19.20;99.90;;;;;;5133669;27;20047;-81
2023/06/12 06:14:08;;;;;;;5.78;3.83;;;19.30;99.90;;;;;;5113234;27;20538;-80
2023/06/12 06:16:34;;;;;;;5.65;3.90;;;19.40;99.90;;;;;;5134749;27;20047;-65
2023/06/12 06:19:00;;;;;;;6.63;4.10;;;19.50;99.90;;;;;;5133433;27;20124;-65
2023/06/12 06:21:26;;;;;;;6.50;4.10;;;19.60;99.90;;;;;;5134140;27;20051;-65
2023/06/12 06:23:51;;;;;;;6.97;4.22;;;19.70;99.90;;;;;;5151209;27;20099;-65
2023/06/12 06:26:17;;;;;;;5.60;3.78;;;19.80;99.90;;;;;;5147713;27;20495;-65
2023/06/12 06:28:43;;;;;;;5.60;3.50;;;19.90;99.90;;;;;;5143402;27;20066;-65
2023/06/12 06:31:08;;;;;;;6.47;3.90;;;20.00;99.90;;;;;;5144087;27;20054;-65
2023/06/12 06:33:34;;;;;;;7.38;4.03;;;20.10;99.90;;;;;;5132075;27;20376;-65
2023/06/12 06:36:01;;;;;;;6.10;3.80;;;20.10;99.90;;;;;;5133443;27;20072;-65
2023/06/12 06:38:27;;;;;;;6.90;3.75;;;20.20;99.90;;;;;;5134587;27;20073;-65
2023/06/12 06:40:53;;;;;;;5.10;4.22;;;20.30;99.90;;;;;;5140218;27;20043;-65
2023/06/12 06:43:19;;;;;;;6.80;4.05;;;20.40;99.90;;;;;;5137155;27;20035;-65
2023/06/12 06:45:45;;;;;;;5.97;4.18;;;20.50;99.90;;;;;;5137102;27;20124;-64
2023/06/12 06:48:14;;;;;;;4.93;4.03;;;20.60;99.90;;;;;;5136693;27;20043;-65
2023/06/12 06:50:40;;;;;;;4.88;4.10;;;20.70;99.90;;;;;;5137135;27;20047;-65
2023/06/12 06:53:06;;;;;;;6.30;4.53;;;20.80;99.90;;;;;;5151264;27;20042;-65
2023/06/12 06:55:32;;;;;;;6.13;3.78;;;20.90;99.90;;;;;;5157933;27;20039;-65
2023/06/12 06:57:58;;;;;;;7.05;4.13;;;21.00;99.90;;;;;;5139654;27;20069;-65
2023/06/12 07:00:26;;;;;;;4.80;4.15;;;21.10;99.90;;;;;;5158035;27;20049;-65
2023/06/12 07:02:52;;;;;;;5.35;3.80;;;21.20;99.90;;;;;;5139650;27;20047;-65
2023/06/12 07:05:18;;;;;;;4.85;3.80;;;21.30;99.90;;;;;;5157360;27;20049;-65
2023/06/12 07:07:45;;;;;;;5.97;3.75;;;21.40;99.90;;;;;;5157751;27;20066;-65
2023/06/12 07:10:11;;;;;;;5.35;3.78;;;21.40;99.90;;;;;;5157617;27;20036;-65
2023/06/12 07:12:37;;;;;;;5.60;4.05;;;21.50;99.90;;;;;;5147931;27;20054;-65
2023/06/12 07:15:03;;;;;;;6.05;3.85;;;21.70;99.90;;;;;;5139943;27;20039;-64
2023/06/12 07:17:29;;;;;;;5.53;3.80;;;21.80;99.90;;;;;;5139973;27;20059;-64
2023/06/12 07:19:55;;;;;;;5.40;3.97;;;21.90;99.90;;;;;;5156516;27;20045;-65
2023/06/12 07:22:21;;;;;;;6.20;4.47;;;22.10;99.90;;;;;;5149293;27;20042;-64
2023/06/12 07:24:47;;;;;;;4.10;3.67;;;22.20;99.90;;;;;;5145723;27;20096;-64
2023/06/12 07:27:13;;;;;;;5.22;3.63;;;22.30;99.90;;;;;;5135095;27;20461;-63
2023/06/12 07:29:38;;;;;;;6.45;4.18;;;22.40;99.90;;;;;;5145591;27;20047;-64
2023/06/12 07:32:05;;;;;;;6.20;4.10;;;22.50;99.90;;;;;;5157171;27;20034;-64
2023/06/12 07:34:30;;;;;;;7.85;4.13;;;22.70;99.90;;;;;;5156405;27;20118;-64
2023/06/12 07:36:58;;;;;;;7.35;4.22;;;22.80;99.90;;;;;;5156319;27;20066;-64
2023/06/12 07:39:25;;;;;;;4.80;4.15;;;22.90;99.90;;;;;;5154886;27;20053;-64
2023/06/12 07:41:50;;;;;;;6.15;3.97;;;23.00;99.90;;;;;;5154182;27;20051;-65
2023/06/12 07:44:16;;;;;;;7.68;4.38;;;23.10;99.90;;;;;;5156464;27;20501;-65
2023/06/12 07:46:42;;;;;;;6.32;4.40;;;23.20;99.90;;;;;;5156465;27;20046;-64
2023/06/12 07:49:08;;;;;;;6.57;4.05;;;23.30;99.90;;;;;;5155638;27;20050;-63
2023/06/12 07:51:34;;;;;;;7.25;4.63;;;23.40;99.90;;;;;;5137882;27;20053;-64
2023/06/12 07:54:00;;;;;;;6.38;4.47;;;23.50;99.90;;;;;;5155222;27;20031;-64
2023/06/12 07:56:25;;;;;;;6.70;3.92;;;23.60;99.90;;;;;;5153588;27;20050;-64
2023/06/12 07:58:52;;;;;;;5.55;4.13;;;23.70;99.90;;;;;;5155310;27;20684;-64
2023/06/12 08:01:18;;;;;;;5.95;4.03;;;23.90;99.90;;;;;;5125684;27;20047;-64
2023/06/12 08:03:45;;;;;;;5.90;3.45;;;24.00;99.90;;;;;;5135581;27;20047;-63
2023/06/12 08:06:13;;;;;;;5.75;4.32;;;24.10;99.90;;;;;;5137427;27;20042;-64
2023/06/12 08:08:47;;;;;;;5.43;4.00;;;24.20;99.90;;;;;;5156167;27;20390;-64
2023/06/12 08:11:13;;;;;;;4.97;3.70;;;24.30;99.90;;;;;;5156350;27;20038;-63
2023/06/12 08:13:40;;;;;;;4.90;3.67;;;24.30;99.90;;;;;;5139711;27;20074;-63
2023/06/12 08:16:07;;;;;;;5.45;3.63;;;24.40;99.90;;;;;;5135633;27;20035;-64
2023/06/12 08:18:32;;;;;;;5.75;3.88;;;24.40;99.90;;;;;;5135085;27;20539;-63
2023/06/12 08:20:58;;;;;;;6.22;4.10;;;24.60;99.90;;;;;;5135762;27;20043;-64
2023/06/12 08:23:24;;;;;;;5.70;3.72;;;24.70;99.90;;;;;;5135715;27;20105;-64
2023/06/12 08:25:50;;;;;;;6.25;3.83;;;24.90;99.90;;;;;;5117174;27;20047;-63
2023/06/12 08:28:16;;;;;;;5.53;3.58;;;25.00;99.90;;;;;;5135577;27;20528;-64
2023/06/12 08:30:42;;;;;;;5.25;4.20;;;25.10;99.90;;;;;;5117640;27;20364;-64
2023/06/12 08:33:08;;;;;;;6.28;3.97;;;25.20;99.90;;;;;;5134935;27;20049;-63
2023/06/12 08:35:35;;;;;;;6.70;4.43;;;25.30;99.90;;;;;;5135334;27;20035;-64
2023/06/12 08:38:01;;;;;;;4.97;3.67;;;25.40;99.90;;;;;;5142533;27;20047;-63
2023/06/12 08:40:27;;;;;;;7.25;4.15;;;25.50;99.90;;;;;;5155703;27;20050;-63
2023/06/12 08:42:53;;;;;;;5.00;3.80;;;25.60;99.90;;;;;;5156141;27;20125;-64
2023/06/12 08:45:20;;;;;;;6.55;3.80;;;25.70;99.90;;;;;;5137586;27;20126;-64
2023/06/12 08:47:49;;;;;;;4.75;3.55;;;25.80;99.90;;;;;;5138236;27;20055;-64
2023/06/12 08:50:19;;;;;;;4.03;3.60;;;25.90;99.90;;;;;;5117189;27;20055;-64
2023/06/12 08:52:50;;;;;;;6.82;4.07;;;26.00;99.90;;;;;;5135198;27;20047;-64
2023/06/12 08:55:16;;;;;;;4.80;3.53;;;26.10;99.90;;;;;;5134508;27;20054;-64
2023/06/12 08:57:47;;;;;;;4.70;3.85;;;26.30;99.90;;;;;;5135140;27;20043;-64
2023/06/12 09:00:13;;;;;;;5.15;4.22;;;26.40;99.90;;;;;;5145283;27;20047;-64
2023/06/12 09:02:47;;;;;;;5.57;3.90;;;26.50;99.90;;;;;;5155212;27;20053;-64
2023/06/12 09:05:17;;;;;;;6.25;3.95;;;26.60;99.90;;;;;;5155294;27;20038;-63
2023/06/12 09:07:45;;;;;;;6.43;3.70;;;26.70;99.90;;;;;;5137037;27;20105;-64
2023/06/12 09:10:11;;;;;;;6.72;4.05;;;26.90;99.90;;;;;;5155251;27;20053;-63
2023/06/12 09:12:37;;;;;;;6.65;3.90;;;27.10;99.90;;;;;;5155428;27;20130;-64
2023/06/12 09:15:03;;;;;;;4.57;3.80;;;27.20;99.90;;;;;;5155453;27;20408;-64
2023/06/12 09:17:29;;;;;;;6.32;3.67;;;27.30;99.90;;;;;;5154621;27;20550;-64
2023/06/12 09:19:55;;;;;;;5.68;3.97;;;27.40;99.90;;;;;;5155355;27;20050;-64
2023/06/12 09:22:21;;;;;;;6.03;3.90;;;27.40;99.90;;;;;;5155347;27;20372;-64
2023/06/12 09:24:47;;;;;;;4.40;3.60;;;27.50;99.90;;;;;;5153435;27;20069;-64
2023/06/12 09:27:13;;;;;;;4.68;3.58;;;27.70;99.90;;;;;;5153368;27;20049;-64
2023/06/12 09:29:40;;;;;;;4.20;3.70;;;27.90;99.90;;;;;;5155257;27;20041;-64
2023/06/12 09:32:10;;;;;;;4.22;3.25;;;28.00;99.90;;;;;;5149394;27;20569;-64
2023/06/12 09:34:36;;;;;;;5.68;3.60;;;28.20;99.90;;;;;;5154257;27;20042;-63
2023/06/12 09:37:09;;;;;;;5.05;3.67;;;28.30;99.90;;;;;;5152873;27;20055;-64
2023/06/12 09:39:35;;;;;;;4.35;3.67;;;28.50;99.90;;;;;;5133859;27;20043;-64
2023/06/12 09:42:02;;;;;;;6.25;3.70;;;28.60;99.90;;;;;;5150231;27;20487;-64
2023/06/12 09:44:29;;;;;;;4.70;3.75;;;28.70;99.90;;;;;;5134026;27;20065;-63
2023/06/12 09:47:02;;;;;;;4.55;3.90;;;28.70;99.90;;;;;;5142605;27;20183;-64
2023/06/12 09:49:29;;;;;;;5.57;4.03;;;28.70;99.90;;;;;;5154273;27;20058;-64
2023/06/12 09:51:58;;;;;;;6.60;3.90;;;28.80;99.90;;;;;;5154332;27;20050;-64
2023/06/12 09:54:27;;;;;;;5.38;3.88;;;29.00;99.90;;;;;;5153802;27;20391;-65
2023/06/12 09:56:56;;;;;;;5.07;4.00;;;29.10;99.90;;;;;;5154718;27;20411;-65
2023/06/12 09:59:22;;;;;;;5.20;3.92;;;29.20;99.90;;;;;;5154342;27;20047;-64
2023/06/12 10:01:51;;;;;;;5.80;3.92;;;29.50;99.90;;;;;;5154022;27;20133;-64
2023/06/12 10:04:29;;;;;;;6.78;4.40;;;29.70;99.90;;;;;;5153978;27;20402;-65
2023/06/12 10:07:04;;;;;;;4.85;3.72;;;29.90;99.90;;;;;;5144134;27;20045;-64
2023/06/12 10:09:31;;;;;;;5.60;4.07;;;29.90;99.90;;;;;;5133672;27;20487;-64
2023/06/12 10:11:59;;;;;;;7.20;3.83;;;29.90;99.90;;;;;;5133737;28;20091;-64
2023/06/12 10:14:26;;;;;;;4.20;3.80;;;30.00;99.90;;;;;;5133804;27;20183;-63
2023/06/12 10:16:57;;;;;;;7.43;4.20;;;30.10;99.90;;;;;;5135160;27;20130;-64
2023/06/12 10:19:26;;;;;;;5.25;3.53;;;30.30;99.90;;;;;;5119324;27;20059;-64
2023/06/12 10:21:56;;;;;;;4.80;4.03;;;30.50;99.90;;;;;;5137896;27;20040;-64
2023/06/12 10:24:23;;;;;;;4.63;4.00;;;30.80;99.90;;;;;;5137425;27;20061;-64
2023/06/12 10:26:52;;;;;;;4.47;3.90;;;30.70;99.90;;;;;;5138019;27;20056;-64
2023/06/12 10:29:29;;;;;;;6.30;4.53;;;30.60;99.20;;;;;;5119448;27;20046;-63
2023/06/12 10:32:14;;;;;;;4.55;3.85;;;30.50;99.10;;;;;;5141322;27;20038;-64
2023/06/12 10:34:45;;;;;;;5.78;3.97;;;30.70;98.70;;;;;;5119389;27;20053;-64
2023/06/12 10:37:23;;;;;;;6.93;4.50;;;30.90;98.50;;;;;;5137664;27;20411;-62
2023/06/12 10:40:12;;;;;;;4.82;4.30;;;31.10;97.10;;;;;;5157758;27;20129;-62
2023/06/12 10:42:54;;;;;;;4.82;4.15;;;31.30;97.10;;;;;;5158051;27;20547;-62
2023/06/12 10:45:30;;;;;;;4.95;4.03;;;31.50;96.30;;;;;;5157900;27;20045;-62
2023/06/12 10:48:05;;;;;;;5.10;4.05;;;31.60;94.50;;;;;;5139136;27;20042;-61
2023/06/12 10:50:33;;;;;;;4.43;4.03;;;31.50;92.30;;;;;;5137200;27;20086;-61
2023/06/12 10:53:04;;;;;;;4.40;4.00;;;31.40;93.50;;;;;;5137227;27;20126;-62
2023/06/12 10:55:36;;;;;;;4.38;3.83;;;31.50;93.20;;;;;;5136593;27;20070;-62
2023/06/12 10:58:03;;;;;;;6.57;4.40;;;31.70;93.10;;;;;;5136826;27;20174;-62
2023/06/12 11:00:31;;;;;;;4.68;4.18;;;32.00;93.20;;;;;;5137024;27;20126;-65
2023/06/12 11:03:07;;;;;;;5.53;4.53;;;32.10;93.10;;;;;;5136538;27;20429;-62
2023/06/12 11:05:34;;;;;;;5.05;4.15;;;32.30;92.90;;;;;;5137052;27;20039;-63
2023/06/12 11:08:02;;;;;;;5.20;4.57;;;32.40;92.70;;;;;;5154187;27;20046;-65
2023/06/12 11:10:29;;;;;;;5.40;4.80;;;32.50;92.20;;;;;;5157092;27;20053;-63
2023/06/12 11:12:55;;;;;;;6.50;4.25;;;32.60;91.60;;;;;;5136327;27;20051;-62
2023/06/12 11:15:22;;;;;;;6.50;4.72;;;32.60;91.70;;;;;;5135862;27;20043;-62
2023/06/12 11:17:49;;;;;;;5.07;4.32;;;32.60;91.60;;;;;;5135856;27;20043;-62
2023/06/12 11:20:18;;;;;;;4.53;4.05;;;32.90;91.70;;;;;;5136703;27;20066;-63
2023/06/12 11:22:47;;;;;;;4.60;4.05;;;33.00;91.50;;;;;;5136605;27;20074;-62
2023/06/12 11:25:14;;;;;;;5.50;4.63;;;33.20;91.30;;;;;;5136438;27;20388;-62
2023/06/12 11:27:39;;;;;;;4.82;4.35;;;33.20;90.60;;;;;;5136496;27;20043;-62
2023/06/12 11:30:15;;;;;;;5.22;4.65;;;33.10;90.30;;;;;;5118245;27;20531;-62
2023/06/12 11:32:42;;;;;;;6.13;4.43;;;32.90;88.50;;;;;;5146273;27;20177;-62
2023/06/12 11:35:11;;;;;;;5.32;4.75;;;32.80;88.70;;;;;;5156639;27;20372;-62
2023/06/12 11:37:38;;;;;;;5.18;4.40;;;32.80;87.40;;;;;;5143239;27;20051;-62
2023/06/12 11:40:12;;;;;;;5.00;4.28;;;33.00;87.70;;;;;;5156500;27;20055;-62
2023/06/12 11:42:44;;;;;;;4.70;4.20;;;33.10;87.30;;;;;;5121440;27;20050;-63
2023/06/12 11:45:13;;;;;;;5.13;4.57;;;33.30;87.50;;;;;;5156878;27;20051;-63
2023/06/12 11:47:40;;;;;;;4.97;4.47;;;33.40;87.10;;;;;;5139774;27;20043;-63
2023/06/12 11:50:15;;;;;;;5.88;4.57;;;33.60;86.80;;;;;;5136084;27;20055;-63
2023/06/12 11:52:42;;;;;;;4.75;4.00;;;33.70;85.60;;;;;;5149436;27;20078;-62
2023/06/12 11:55:10;;;;;;;5.13;4.63;;;33.30;84.40;;;;;;5150671;27;20509;-62
2023/06/12 11:57:36;;;;;;;4.72;4.20;;;32.80;83.90;;;;;;5156267;27;20134;-62
2023/06/12 12:00:13;;;;;;;4.93;3.90;;;32.20;83.20;;;;;;5156225;27;20055;-62
2023/06/12 12:02:44;;;;;;;5.00;4.38;;;32.00;83.80;;;;;;5156092;27;20042;-62
2023/06/12 12:05:11;;;;;;;5.53;4.32;;;32.10;84.40;;;;;;5156763;27;20406;-62
2023/06/12 12:07:40;;;;;;;5.28;4.47;;;31.90;82.80;;;;;;5155714;27;20035;-63
2023/06/12 12:10:10;;;;;;;5.43;4.32;;;31.70;82.60;;;;;;5156233;27;20058;-63
2023/06/12 12:12:43;;;;;;;4.75;4.30;;;31.90;83.30;;;;;;5140813;27;20049;-63
2023/06/12 12:15:10;;;;;;;5.53;4.22;;;31.80;82.00;;;;;;5135171;27;20567;-63
2023/06/12 12:17:39;;;;;;;5.88;4.40;;;31.60;81.90;;;;;;5135021;27;20055;-63
2023/06/12 12:20:07;;;;;;;4.82;4.40;;;31.50;81.80;;;;;;5135591;27;20475;-63
2023/06/12 12:22:40;;;;;;;4.72;4.22;;;31.20;82.10;;;;;;5135026;27;20090;-63
2023/06/12 12:25:08;;;;;;;4.75;4.25;;;31.10;83.00;;;;;;5135647;27;20037;-65
2023/06/12 12:27:34;;;;;;;5.15;4.20;;;31.30;82.60;;;;;;5135665;27;20085;-65
2023/06/12 12:30:03;;;;;;;5.03;4.22;;;31.70;83.10;;;;;;5134982;27;20047;-65
2023/06/12 12:32:29;;;;;;;5.57;4.20;;;32.00;82.90;;;;;;5144150;27;20078;-65
2023/06/12 12:34:57;;;;;;;5.45;4.50;;;32.10;82.90;;;;;;5155949;27;20186;-65
2023/06/12 12:37:23;;;;;;;5.47;4.22;;;31.80;82.60;;;;;;5145527;27;20111;-65
2023/06/12 12:39:48;;;;;;;4.22;3.83;;;31.60;82.90;;;;;;5155121;27;20495;-65
2023/06/12 12:42:14;;;;;;;5.55;4.28;;;32.00;83.00;;;;;;5155307;27;20100;-65
2023/06/12 12:44:40;;;;;;;6.13;4.50;;;32.30;82.70;;;;;;5155831;27;20118;-63
2023/06/12 12:47:06;;;;;;;5.07;4.10;;;32.60;82.50;;;;;;5144732;27;20043;-63
2023/06/12 12:49:32;;;;;;;4.68;4.13;;;32.50;81.50;;;;;;5134692;27;20119;-62